createdAt,value
2023-09-27T00:01:09.511Z,12.05
2023-09-27T00:03:50.881Z,12.08
2023-09-27T00:06:30.510Z,12.03
2023-09-27T00:09:10.651Z,12.00
2023-09-27T00:11:50.525Z,12.00
2023-09-27T00:14:30.631Z,11.96
2023-09-27T00:17:11.570Z,11.93
2023-09-27T00:19:58.525Z,11.88
2023-09-27T00:22:38.525Z,11.85
2023-09-27T00:25:25.535Z,11.83
2023-09-27T00:27:58.961Z,11.83
2023-09-27T00:30:45.537Z,11.88
2023-09-27T00:33:19.139Z,11.89
2023-09-27T00:36:05.530Z,11.86
2023-09-27T00:38:38.875Z,11.85
2023-09-27T00:41:25.654Z,11.78
2023-09-27T00:44:05.594Z,11.73
2023-09-27T00:46:59.562Z,11.72
2023-09-27T00:49:46.550Z,11.66
2023-09-27T00:52:22.628Z,11.63
2023-09-27T00:55:09.541Z,11.55
2023-09-27T00:57:50.604Z,11.54
2023-09-27T01:00:37.582Z,11.54
2023-09-27T01:03:12.110Z,11.49
2023-09-27T01:05:58.564Z,11.47
2023-09-27T01:08:38.606Z,11.47
2023-09-27T01:11:25.607Z,11.42
2023-09-27T01:13:58.682Z,11.42
2023-09-27T01:16:45.575Z,11.45
2023-09-27T01:19:18.633Z,11.40
2023-09-27T01:22:05.555Z,11.36
2023-09-27T01:24:42.694Z,11.35
2023-09-27T01:27:30.595Z,11.32
2023-09-27T01:30:13.546Z,11.30
2023-09-27T01:33:07.650Z,11.31
2023-09-27T01:36:03.556Z,11.31
2023-09-27T01:38:50.698Z,11.28
2023-09-27T01:41:23.755Z,11.27
2023-09-27T01:44:10.612Z,11.26
2023-09-27T01:46:53.602Z,11.26
2023-09-27T01:49:47.555Z,11.27
2023-09-27T01:52:41.573Z,11.30
2023-09-27T01:55:28.575Z,11.31
2023-09-27T01:58:02.672Z,11.29
2023-09-27T02:00:49.581Z,11.25
2023-09-27T02:03:22.830Z,11.24
2023-09-27T02:06:09.584Z,11.22
2023-09-27T02:08:49.572Z,11.16
2023-09-27T02:11:43.580Z,11.18
2023-09-27T02:14:37.614Z,11.16
2023-09-27T02:17:24.616Z,11.12
2023-09-27T02:20:04.609Z,11.10
2023-09-27T02:22:54.612Z,11.05
2023-09-27T02:25:28.578Z,11.12
2023-09-27T02:28:15.588Z,11.12
2023-09-27T02:30:55.593Z,11.08
2023-09-27T02:33:49.586Z,11.10
2023-09-27T02:36:36.590Z,11.03
2023-09-27T02:39:11.573Z,11.05
2023-09-27T02:41:58.600Z,11.01
2023-09-27T02:44:32.373Z,11.01
2023-09-27T02:47:20.642Z,11.07
2023-09-27T02:50:07.593Z,11.10
2023-09-27T02:52:47.613Z,11.12
2023-09-27T02:55:27.671Z,11.06
2023-09-27T02:58:07.612Z,11.00
2023-09-27T03:00:49.260Z,10.97
2023-09-27T03:03:29.650Z,10.93
2023-09-27T03:06:10.177Z,10.92
2023-09-27T03:08:50.622Z,10.92
2023-09-27T03:11:37.659Z,10.96
2023-09-27T03:14:11.098Z,10.98
2023-09-27T03:16:57.688Z,11.01
2023-09-27T03:19:37.677Z,11.03
2023-09-27T03:22:24.605Z,11.03
2023-09-27T03:24:57.965Z,11.02
2023-09-27T03:27:44.609Z,11.03
2023-09-27T03:30:18.468Z,11.03
2023-09-27T03:33:05.717Z,11.01
2023-09-27T03:35:39.046Z,11.00
2023-09-27T03:38:25.706Z,10.97
2023-09-27T03:40:59.019Z,10.93
2023-09-27T03:43:45.689Z,10.91
2023-09-27T03:46:19.309Z,10.83
2023-09-27T03:49:06.693Z,10.75
2023-09-27T03:51:40.038Z,10.69
2023-09-27T03:54:29.686Z,10.73
2023-09-27T03:57:23.693Z,10.75
2023-09-27T04:00:29.670Z,10.78
2023-09-27T04:03:02.948Z,10.80
2023-09-27T04:05:49.670Z,10.79
2023-09-27T04:08:29.707Z,10.76
2023-09-27T04:11:23.730Z,10.74
2023-09-27T04:14:18.668Z,10.71
2023-09-27T04:17:12.754Z,10.65
2023-09-27T04:19:59.737Z,10.69
2023-09-27T04:22:32.804Z,10.73
2023-09-27T04:25:22.625Z,10.65
2023-09-27T04:28:03.707Z,10.59
2023-09-27T04:30:57.695Z,10.48
2023-09-27T04:33:47.817Z,10.36
2023-09-27T04:36:24.782Z,10.31
2023-09-27T04:39:20.694Z,10.24
2023-09-27T04:41:56.481Z,10.19
2023-09-27T04:44:50.695Z,10.15
2023-09-27T04:47:44.762Z,10.12
2023-09-27T04:50:38.737Z,10.21
2023-09-27T04:53:25.743Z,10.29
2023-09-27T04:55:59.818Z,10.37
2023-09-27T04:58:49.763Z,10.41
2023-09-27T05:01:29.769Z,10.47
2023-09-27T05:04:16.720Z,10.51
2023-09-27T05:06:56.697Z,10.54
2023-09-27T05:09:50.749Z,10.57
2023-09-27T05:12:40.627Z,10.59
2023-09-27T05:15:24.698Z,10.59
2023-09-27T05:18:18.739Z,10.59
2023-09-27T05:21:11.765Z,10.61
2023-09-27T05:23:45.151Z,10.62
2023-09-27T05:26:31.748Z,10.66
2023-09-27T05:29:04.890Z,10.66
2023-09-27T05:31:51.732Z,10.68
2023-09-27T05:34:31.717Z,10.71
2023-09-27T05:37:25.717Z,10.74
2023-09-27T05:40:20.701Z,10.77
2023-09-27T05:43:16.766Z,10.86
2023-09-27T05:46:10.760Z,10.95
2023-09-27T05:49:04.715Z,11.04
2023-09-27T05:51:51.730Z,11.15
2023-09-27T05:54:25.002Z,11.24
2023-09-27T05:57:11.722Z,11.33
2023-09-27T05:59:54.790Z,11.44
2023-09-27T06:02:48.892Z,11.56
2023-09-27T06:05:42.795Z,11.68
2023-09-27T06:08:36.818Z,11.75
2023-09-27T06:11:23.769Z,11.87
2023-09-27T06:14:03.981Z,11.95
2023-09-27T06:16:47.792Z,12.03
2023-09-27T06:19:34.753Z,12.06
2023-09-27T06:22:08.109Z,12.11
2023-09-27T06:24:54.721Z,12.18
2023-09-27T06:27:37.719Z,12.27
2023-09-27T06:30:24.768Z,12.35
2023-09-27T06:32:58.202Z,12.48
2023-09-27T06:35:44.762Z,12.59
2023-09-27T06:38:23.145Z,12.68
2023-09-27T06:41:09.932Z,12.78
2023-09-27T06:43:49.825Z,12.92
2023-09-27T06:46:48.841Z,13.06
2023-09-27T06:49:37.755Z,13.20
2023-09-27T06:52:17.840Z,13.34
2023-09-27T06:55:14.755Z,13.47
2023-09-27T06:58:01.758Z,13.57
2023-09-27T07:00:34.877Z,13.67
2023-09-27T07:03:24.778Z,13.78
2023-09-27T07:06:09.794Z,13.87
2023-09-27T07:09:07.779Z,13.97
2023-09-27T07:12:05.807Z,14.05
2023-09-27T07:14:59.792Z,14.14
2023-09-27T07:17:49.936Z,14.23
2023-09-27T07:20:29.125Z,14.30
2023-09-27T07:23:21.837Z,14.38
2023-09-27T07:25:56.016Z,14.46
2023-09-27T07:28:44.806Z,14.54
2023-09-27T07:31:21.341Z,14.61
2023-09-27T07:34:08.796Z,14.69
2023-09-27T07:36:41.866Z,14.78
2023-09-27T07:39:30.783Z,14.87
2023-09-27T07:42:10.766Z,14.97
2023-09-27T07:45:06.752Z,15.06
2023-09-27T07:48:01.918Z,15.16
2023-09-27T07:50:56.769Z,15.25
2023-09-27T07:53:38.709Z,15.38
2023-09-27T07:56:44.841Z,15.50
2023-09-27T07:59:18.360Z,15.62
2023-09-27T08:02:06.805Z,15.74
2023-09-27T08:04:41.196Z,15.85
2023-09-27T08:07:28.753Z,15.92
2023-09-27T08:10:20.303Z,16.03
2023-09-27T08:13:08.767Z,16.10
2023-09-27T08:16:07.759Z,16.24
2023-09-27T08:18:58.769Z,16.37
2023-09-27T08:21:32.872Z,16.44
2023-09-27T08:24:19.792Z,16.52
2023-09-27T08:26:59.803Z,16.63
2023-09-27T08:29:53.791Z,16.70
2023-09-27T08:32:48.889Z,16.83
2023-09-27T08:35:35.865Z,16.95
2023-09-27T08:38:15.892Z,17.03
2023-09-27T08:41:02.774Z,17.10
2023-09-27T08:43:36.887Z,17.17
2023-09-27T08:46:33.859Z,17.23
2023-09-27T08:49:25.248Z,17.33
2023-09-27T08:52:06.780Z,17.44
2023-09-27T08:55:00.780Z,17.53
2023-09-27T08:57:54.796Z,17.67
2023-09-27T09:00:36.842Z,17.75
2023-09-27T09:03:24.976Z,17.84
2023-09-27T09:05:59.002Z,17.91
2023-09-27T09:08:51.876Z,17.98
2023-09-27T09:11:33.865Z,18.04
2023-09-27T09:14:24.890Z,18.14
2023-09-27T09:17:11.230Z,18.23
2023-09-27T09:20:25.033Z,18.28
2023-09-27T09:22:58.719Z,18.36
2023-09-27T09:25:51.795Z,18.42
2023-09-27T09:28:32.857Z,18.46
2023-09-27T09:31:42.979Z,18.54
2023-09-27T09:34:39.158Z,18.61
2023-09-27T09:37:28.843Z,18.65
2023-09-27T09:40:25.323Z,18.77
2023-09-27T09:43:18.857Z,18.97
2023-09-27T09:46:17.221Z,19.06
2023-09-27T09:49:11.821Z,19.16
2023-09-27T09:52:05.791Z,19.22
2023-09-27T09:55:16.010Z,19.29
2023-09-27T09:58:21.866Z,19.29
2023-09-27T10:01:01.839Z,19.28
2023-09-27T10:09:35.838Z,19.34
2023-09-27T10:12:25.837Z,19.35
2023-09-27T10:14:59.930Z,19.38
2023-09-27T10:17:46.935Z,19.41
2023-09-27T10:20:23.502Z,19.39
2023-09-27T10:23:18.880Z,19.40
2023-09-27T10:25:58.831Z,19.41
2023-09-27T10:29:18.930Z,19.41
2023-09-27T10:32:05.889Z,19.43
2023-09-27T10:34:45.854Z,19.49
2023-09-27T10:38:17.863Z,19.56
2023-09-27T10:41:11.930Z,19.59
2023-09-27T10:43:58.947Z,19.66
2023-09-27T10:46:32.956Z,19.65
2023-09-27T10:49:27.851Z,19.64
2023-09-27T10:52:08.856Z,19.63
2023-09-27T10:55:02.868Z,19.59
2023-09-27T10:57:56.934Z,19.61
2023-09-27T11:01:13.913Z,19.61
2023-09-27T11:04:22.817Z,19.70
2023-09-27T11:07:10.922Z,19.74
2023-09-27T11:09:59.851Z,19.75
2023-09-27T11:12:53.889Z,19.79
2023-09-27T11:15:44.879Z,19.79
2023-09-27T11:18:19.128Z,19.81
2023-09-27T11:21:15.869Z,19.83
2023-09-27T11:24:11.879Z,19.85
2023-09-27T11:26:58.891Z,19.93
2023-09-27T11:29:38.926Z,20.03
2023-09-27T11:32:26.906Z,20.05
2023-09-27T11:35:11.953Z,20.16
2023-09-27T11:38:19.921Z,20.18
2023-09-27T11:40:59.903Z,20.23
2023-09-27T11:43:54.368Z,20.26
2023-09-27T11:46:42.894Z,20.23
2023-09-27T11:49:23.887Z,20.18
2023-09-27T11:52:18.903Z,20.19
2023-09-27T11:55:05.902Z,20.27
2023-09-27T11:57:45.925Z,20.29
2023-09-27T12:00:33.893Z,20.29
2023-09-27T12:03:07.191Z,20.28
2023-09-27T12:05:54.237Z,20.35
2023-09-27T12:08:34.923Z,20.33
2023-09-27T12:11:21.939Z,20.31
2023-09-27T12:14:01.900Z,20.35
2023-09-27T12:16:48.881Z,20.43
2023-09-27T12:19:28.905Z,20.52
2023-09-27T12:22:23.125Z,20.54
2023-09-27T12:25:16.944Z,20.55
2023-09-27T12:28:10.956Z,20.56
2023-09-27T12:31:04.986Z,20.59
2023-09-27T12:33:58.896Z,20.62
2023-09-27T12:36:45.935Z,20.63
2023-09-27T12:39:25.942Z,20.67
2023-09-27T12:42:12.902Z,20.65
2023-09-27T12:44:46.035Z,20.65
2023-09-27T12:47:33.028Z,20.68
2023-09-27T12:50:07.896Z,20.68
2023-09-27T12:52:54.939Z,20.64
2023-09-27T12:55:34.913Z,20.67
2023-09-27T12:58:21.944Z,20.65
2023-09-27T13:01:02.003Z,20.64
2023-09-27T13:03:49.002Z,20.63
2023-09-27T13:06:29.933Z,20.58
2023-09-27T13:09:17.956Z,20.50
2023-09-27T13:12:04.966Z,20.55
2023-09-27T13:14:38.303Z,20.51
2023-09-27T13:17:25.032Z,20.55
2023-09-27T13:19:58.314Z,20.56
2023-09-27T13:22:44.952Z,20.56
2023-09-27T13:25:25.041Z,20.58
2023-09-27T13:28:11.941Z,20.55
2023-09-27T13:30:45.342Z,20.53
2023-09-27T13:33:33.057Z,20.50
2023-09-27T13:36:06.560Z,20.51
2023-09-27T13:38:53.273Z,20.49
2023-09-27T13:41:35.011Z,20.44
2023-09-27T13:44:23.585Z,20.43
2023-09-27T13:47:05.503Z,20.40
2023-09-27T13:49:54.542Z,20.38
2023-09-27T13:52:34.978Z,20.37
2023-09-27T13:55:22.971Z,20.34
2023-09-27T13:57:57.340Z,20.28
2023-09-27T14:00:43.965Z,20.26
2023-09-27T14:03:25.043Z,20.28
2023-09-27T14:06:05.372Z,20.26
2023-09-27T14:08:45.313Z,20.30
2023-09-27T14:11:33.111Z,20.31
2023-09-27T14:14:06.372Z,20.32
2023-09-27T14:16:54.077Z,20.33
2023-09-27T14:19:27.349Z,20.31
2023-09-27T14:22:14.014Z,20.33
2023-09-27T14:24:54.000Z,20.35
2023-09-27T14:27:41.013Z,20.35
2023-09-27T14:30:22.115Z,20.37
2023-09-27T14:33:09.032Z,20.40
2023-09-27T14:38:36.091Z,20.41
2023-09-27T14:41:17.024Z,20.40
2023-09-27T14:43:57.176Z,20.37
2023-09-27T14:46:37.137Z,20.33
2023-09-27T14:49:18.392Z,20.30
2023-09-27T14:51:59.013Z,20.31
2023-09-27T14:54:46.057Z,20.26
2023-09-27T14:57:21.419Z,20.19
2023-09-27T15:00:08.051Z,20.16
2023-09-27T15:02:55.161Z,20.11
2023-09-27T15:05:28.176Z,20.05
2023-09-27T15:08:16.048Z,19.97
2023-09-27T15:10:49.213Z,19.93
2023-09-27T15:13:37.029Z,19.86
2023-09-27T15:16:17.052Z,19.79
2023-09-27T15:19:11.077Z,19.71
2023-09-27T15:22:05.036Z,19.61
2023-09-27T15:25:00.163Z,19.50
2023-09-27T15:27:47.061Z,19.41
2023-09-27T15:30:20.142Z,19.33
2023-09-27T15:33:07.182Z,19.25
2023-09-27T15:35:40.334Z,19.16
2023-09-27T15:38:27.038Z,19.08
2023-09-27T15:41:08.040Z,18.97
2023-09-27T15:44:02.081Z,18.88
2023-09-27T15:46:58.093Z,18.79
2023-09-27T15:49:45.156Z,18.71
2023-09-27T15:52:26.130Z,18.61
2023-09-27T15:55:24.074Z,18.53
2023-09-27T15:58:12.048Z,18.43
2023-09-27T16:00:53.091Z,18.35
2023-09-27T16:03:47.053Z,18.26
2023-09-27T16:06:41.082Z,18.16
2023-09-27T16:09:35.041Z,18.08
2023-09-27T16:12:22.070Z,18.00
2023-09-27T16:15:02.062Z,17.93
2023-09-27T16:17:56.085Z,17.88
2023-09-27T16:20:50.138Z,17.81
2023-09-27T16:23:44.090Z,17.74
2023-09-27T16:26:31.236Z,17.64
2023-09-27T16:29:04.234Z,17.60
2023-09-27T16:31:53.208Z,17.57
2023-09-27T16:34:26.620Z,17.51
2023-09-27T16:37:13.112Z,17.46
2023-09-27T16:39:46.596Z,17.42
2023-09-27T16:42:33.213Z,17.37
2023-09-27T16:45:13.136Z,17.33
2023-09-27T16:48:07.163Z,17.32
2023-09-27T16:50:54.140Z,17.27
2023-09-27T16:53:34.128Z,17.19
2023-09-27T16:56:21.150Z,17.14
2023-09-27T16:58:55.294Z,17.10
2023-09-27T17:01:42.232Z,17.02
2023-09-27T17:04:23.144Z,16.96
2023-09-27T17:07:17.237Z,16.87
2023-09-27T17:10:05.124Z,16.79
2023-09-27T17:12:39.281Z,16.73
2023-09-27T17:15:33.141Z,16.67
2023-09-27T17:18:27.215Z,16.58
2023-09-27T17:21:21.132Z,16.50
2023-09-27T17:24:01.676Z,16.44
2023-09-27T17:26:48.170Z,16.38
2023-09-27T17:29:28.144Z,16.31
2023-09-27T17:32:15.215Z,16.27
2023-09-27T17:34:48.564Z,16.15
2023-09-27T17:37:35.287Z,16.06
2023-09-27T17:40:09.235Z,16.01
2023-09-27T17:42:57.179Z,16.02
2023-09-27T17:45:37.182Z,15.99
2023-09-27T17:48:31.181Z,15.93
2023-09-27T17:51:19.174Z,15.83
2023-09-27T17:54:00.190Z,15.77
2023-09-27T17:56:54.185Z,15.73
2023-09-27T17:59:41.167Z,15.70
2023-09-27T18:02:22.229Z,15.63
2023-09-27T18:05:09.164Z,15.58
2023-09-27T18:07:42.280Z,15.49
2023-09-27T18:10:29.189Z,15.37
2023-09-27T18:13:02.345Z,15.34
2023-09-27T18:15:49.232Z,15.24
2023-09-27T18:18:22.379Z,15.17
2023-09-27T18:21:09.164Z,15.15
2023-09-27T18:23:42.831Z,15.14
2023-09-27T18:26:34.125Z,15.15
2023-09-27T18:29:07.376Z,15.11
2023-09-27T18:31:55.301Z,15.10
2023-09-27T18:34:28.261Z,14.95
2023-09-27T18:37:17.141Z,14.86
2023-09-27T18:39:50.261Z,14.79
2023-09-27T18:42:37.146Z,14.71
2023-09-27T18:45:10.335Z,14.69
2023-09-27T18:48:04.266Z,14.70
2023-09-27T18:50:51.182Z,14.59
2023-09-27T18:53:25.313Z,14.57
2023-09-27T18:56:12.142Z,14.52
2023-09-27T18:58:45.406Z,14.48
2023-09-27T19:01:33.222Z,14.43
2023-09-27T19:04:06.306Z,14.38
2023-09-27T19:06:53.137Z,14.38
2023-09-27T19:09:26.298Z,14.33
2023-09-27T19:12:13.155Z,14.31
2023-09-27T19:14:46.298Z,14.28
2023-09-27T19:17:33.194Z,14.20
2023-09-27T19:20:16.172Z,14.17
2023-09-27T19:23:10.200Z,14.16
2023-09-27T19:25:57.162Z,14.15
2023-09-27T19:28:33.709Z,14.10
2023-09-27T19:31:24.148Z,14.12
2023-09-27T19:34:04.174Z,14.04
2023-09-27T19:36:51.198Z,14.00
2023-09-27T19:39:27.450Z,13.98
2023-09-27T19:42:14.168Z,14.01
2023-09-27T19:44:47.295Z,14.03
2023-09-27T19:47:36.216Z,14.00
2023-09-27T19:50:12.936Z,13.87
2023-09-27T19:53:00.297Z,13.84
2023-09-27T19:55:40.207Z,13.85
2023-09-27T19:58:34.212Z,13.87
2023-09-27T20:01:40.338Z,13.78
2023-09-27T20:04:14.306Z,13.68
2023-09-27T20:07:01.212Z,13.71
2023-09-27T20:09:37.309Z,13.70
2023-09-27T20:12:24.205Z,13.56
2023-09-27T20:14:57.366Z,13.46
2023-09-27T20:17:44.204Z,13.42
2023-09-27T20:20:17.322Z,13.45
2023-09-27T20:23:04.235Z,13.47
2023-09-27T20:25:44.282Z,13.39
2023-09-27T20:28:38.415Z,13.32
2023-09-27T20:31:26.551Z,13.30
2023-09-27T20:34:00.427Z,13.29
2023-09-27T20:36:47.268Z,13.30
2023-09-27T20:39:20.961Z,13.31
2023-09-27T20:42:09.214Z,13.27
2023-09-27T20:44:42.307Z,13.26
2023-09-27T20:47:36.388Z,13.29
2023-09-27T20:50:23.197Z,13.27
2023-09-27T20:53:03.391Z,13.24
2023-09-27T20:55:57.207Z,13.22
2023-09-27T20:58:48.305Z,13.21
2023-09-27T21:01:41.994Z,13.13
2023-09-27T21:04:29.252Z,13.15
2023-09-27T21:07:10.202Z,13.13
2023-09-27T21:09:57.213Z,13.09
2023-09-27T21:12:30.347Z,13.08
2023-09-27T21:15:17.212Z,13.02
2023-09-27T21:17:57.254Z,13.01
2023-09-27T21:20:51.231Z,12.96
2023-09-27T21:23:38.214Z,12.82
2023-09-27T21:26:13.136Z,12.71
2023-09-27T21:29:00.295Z,12.67
2023-09-27T21:31:34.067Z,12.65
2023-09-27T21:34:21.211Z,12.61
2023-09-27T21:36:57.335Z,12.57
2023-09-27T21:39:44.217Z,12.47
2023-09-27T21:42:17.921Z,12.42
2023-09-27T21:45:05.253Z,12.32
2023-09-27T21:47:38.386Z,12.28
2023-09-27T21:50:25.251Z,12.25
2023-09-27T21:52:58.410Z,12.24
2023-09-27T21:55:45.230Z,12.19
2023-09-27T21:58:18.431Z,12.21
2023-09-27T22:01:05.268Z,12.20
2023-09-27T22:03:38.392Z,12.18
2023-09-27T22:06:25.248Z,12.09
2023-09-27T22:09:05.241Z,12.05
2023-09-27T22:11:53.252Z,12.02
2023-09-27T22:14:26.659Z,11.99
2023-09-27T22:17:16.237Z,12.01
2023-09-27T22:19:56.274Z,11.99
2023-09-27T22:22:51.290Z,11.99
2023-09-27T22:25:45.277Z,12.00
2023-09-27T22:28:32.473Z,11.93
2023-09-27T22:31:14.162Z,11.95
2023-09-27T22:34:04.238Z,11.94
2023-09-27T22:36:44.251Z,11.95
2023-09-27T22:39:31.243Z,11.93
2023-09-27T22:42:12.254Z,11.93
2023-09-27T22:44:59.255Z,11.93
2023-09-27T22:47:39.263Z,11.85
2023-09-27T22:50:36.251Z,11.79
2023-09-27T22:53:35.242Z,11.74
2023-09-27T22:56:29.270Z,11.75
2023-09-27T22:59:17.284Z,11.71
2023-09-27T23:02:02.355Z,11.78
2023-09-27T23:04:59.321Z,11.73
2023-09-27T23:07:53.288Z,11.73
2023-09-27T23:10:47.272Z,11.74
2023-09-27T23:13:37.304Z,11.66
2023-09-27T23:16:49.298Z,11.62
2023-09-27T23:19:39.289Z,11.54
2023-09-27T23:22:19.270Z,11.53
2023-09-27T23:25:26.268Z,11.47
2023-09-27T23:28:03.778Z,11.39
2023-09-27T23:31:00.304Z,11.29
2023-09-27T23:33:55.479Z,11.27
2023-09-27T23:36:46.276Z,11.20
2023-09-27T23:39:23.051Z,11.16
2023-09-27T23:42:10.305Z,11.10
2023-09-27T23:44:44.121Z,11.11
2023-09-27T23:47:39.401Z,11.16
2023-09-27T23:50:38.279Z,11.09
2023-09-27T23:53:25.272Z,11.03
2023-09-27T23:56:07.317Z,10.98
2023-09-27T23:59:01.314Z,10.96
